• Join FlightAware (Why Join?)
  • Login
  • US Flag 
09:32PM EDT


 

Airport Tracker/Info


-or-


 

Live Flight TrackerFlight Track Log ✈ EJA929 ✈ 19-Jul-2013 ✈ 36U - KBUR

Flight Track Log - Related Links

Times and Time Zones

All times are in EDT time to prevent confusion due to time zone crossing. See the EJA929 flight status page for this flight to view local times or setup timezone preferences in your user account.

Time Position Orientation Groundspeed Altitude Reporting Facility
EDT Latitude Longitude Course Direction KTS MPH feet Rate Location/Type
08:52AM 40.0318 -112.0674 201° Southwest  Level FlightAware Approximate
08:53AM 39.9283 -112.1359 201° Southwest  Level FlightAware Approximate
08:54AM 39.8189 -112.1905 201° Southwest  Level FlightAware Approximate
08:55AM 39.7113 -112.2507 204° Southwest  Level FlightAware Approximate
08:56AM 39.6048 -112.3139 205° Southwest  Level FlightAware Approximate
08:56AM 40.4358 -111.4942 203° Southwest 201 231 9,800  Level Salt Lake Center
08:57AM 39.4988 -112.3786 207° Southwest  Level FlightAware Approximate
08:57AM 40.3831 -111.5061 190° South 220 253 13,200  Level Salt Lake Center
08:58AM 39.3911 -112.4378 201° Southwest  Level FlightAware Approximate
08:58AM 40.3083 -111.5272 192° South 295 339 15,500  Level Salt Lake Center
08:59AM 39.2818 -112.4924 201° Southwest  Level FlightAware Approximate
08:59AM 40.2156 -111.5811 204° Southwest 378 435 17,500  Level Salt Lake Center
09:00AM 39.1770 -112.5589 210° Southwest  Level FlightAware Approximate
09:00AM 40.1178 -111.6583 211° Southwest 414 476 19,200  Level Salt Lake Center
09:01AM 39.0688 -112.6118 203° Southwest  Level FlightAware Approximate
09:01AM 40.0167 -111.7394 212° Southwest 428 493 20,900  Level Salt Lake Center
09:02AM 39.9133 -111.8219 211° Southwest 436 502 22,500 1,800 Climbing Salt Lake Center
09:03AM 39.7886 -111.9206 211° Southwest 437 503 24,600 1,860 Climbing Salt Lake Center
09:04AM 39.6847 -112.0033 212° Southwest 438 504 26,300 1,620 Climbing Salt Lake Center
09:05AM 39.5783 -112.0847 211° Southwest 443 510 28,000 1,620 Climbing Salt Lake Center
09:06AM 39.4725 -112.1686 211° Southwest 447 514 29,700 1,620 Climbing Salt Lake Center
09:07AM 39.3650 -112.2517 211° Southwest 450 518 31,400 1,680 Climbing Salt Lake Center
09:08AM 39.2594 -112.3336 211° Southwest 444 511 33,100 1,680 Climbing Salt Lake Center
09:09AM 39.1531 -112.4147 211° Southwest 449 517 34,800 1,620 Climbing Salt Lake Center
09:10AM 39.0442 -112.4992 211° Southwest 457 526 36,500 1,440 Climbing Salt Lake Center
09:11AM 38.9339 -112.5828 211° Southwest 461 531 37,800 1,320 Climbing Salt Lake Center
09:12AM 38.8228 -112.6667 210° Southwest 464 534 39,200 1,020 Climbing Salt Lake Center
09:13AM 38.7094 -112.7528 211° Southwest 473 544 39,900 360 Climbing Salt Lake Center
09:14AM 38.5731 -112.8544 210° Southwest 475 547 40,000  Climbing Salt Lake Center
09:15AM 38.4594 -112.9397 210° Southwest 476 548 40,000  Level Salt Lake Center
09:16AM 38.3467 -113.0242 210° Southwest 474 545 40,000  Level Salt Lake Center
09:17AM 38.2369 -113.1147 213° Southwest 472 543 40,000  Level Salt Lake Center
09:18AM 38.1275 -113.2042 213° Southwest 471 542 40,000  Level Salt Lake Center
09:19AM 38.0172 -113.2933 213° Southwest 472 543 40,000  Level Salt Lake Center
09:20AM 37.9072 -113.3819 212° Southwest 472 543 40,000  Level Salt Lake Center
09:21AM 37.7981 -113.4692 212° Southwest 470 541 40,000  Level Salt Lake Center
09:22AM 37.6867 -113.5567 212° Southwest 474 545 40,000  Level Salt Lake Center
09:23AM 37.6006 -113.6258 212° Southwest 469 540 40,000  Level Los Angeles Center
09:24AM 37.4861 -113.7119 211° Southwest 477 549 40,000  Level Los Angeles Center
09:25AM 37.3539 -113.8175 212° Southwest 471 542 40,000  Level Los Angeles Center
09:26AM 37.2539 -113.8978 213° Southwest 468 539 40,000  Level Los Angeles Center
09:27AM 37.1433 -113.9858 212° Southwest 468 539 40,000  Level Los Angeles Center
09:28AM 37.0522 -114.0544 211° Southwest 471 542 40,000  Level Los Angeles Center
09:29AM 36.9167 -114.1572 211° Southwest 473 544 40,000  Level Los Angeles Center
09:30AM 36.8039 -114.2442 212° Southwest 475 547 40,000  Level Los Angeles Center
09:31AM 36.6922 -114.3289 211° Southwest 470 541 40,000  Level Los Angeles Center
09:32AM 36.5575 -114.4328 212° Southwest 471 542 40,000  Level Los Angeles Center
09:33AM 36.4439 -114.5189 211° Southwest 474 545 40,000  Level Los Angeles Center
09:34AM 36.3300 -114.6061 212° Southwest 477 549 40,000 -780 Level Los Angeles Center
09:35AM 36.2156 -114.6942 212° Southwest 479 551 38,500 -1,680 Descending Los Angeles Center
09:36AM 36.0961 -114.7844 211° Southwest 493 567 36,600 -1,680 Descending Los Angeles Center
09:37AM 35.9803 -114.8833 215° Southwest 501 577 35,100 -1,320 Descending Los Angeles Center
09:39AM 35.8858 -115.0094 227° Southwest 496 571 34,000 -600 Descending Los Angeles Center
09:40AM 35.7919 -115.1378 228° Southwest 500 575 34,000  Level Los Angeles Center
09:41AM 35.6978 -115.2683 228° Southwest 507 583 34,000  Level Los Angeles Center
09:42AM 35.6211 -115.3711 227° Southwest 508 585 34,000  Level Los Angeles Center
09:43AM 35.5053 -115.5269 228° Southwest 512 589 34,000  Level Los Angeles Center
09:44AM 35.4150 -115.6494 228° Southwest 510 587 34,000  Level Los Angeles Center
09:45AM 35.2986 -115.8042 227° Southwest 513 590 34,000  Level Los Angeles Center
09:46AM 35.2011 -115.9314 227° Southwest 513 590 34,000 -120 Level Los Angeles Center
09:47AM 35.1042 -116.0611 228° Southwest 515 593 33,800 -1,380 Descending Los Angeles Center
09:48AM 35.0044 -116.1914 227° Southwest 523 602 31,200 -3,120 Descending Los Angeles Center
09:49AM 34.9047 -116.3219 227° Southwest 527 606 27,500 -3,480 Descending Los Angeles Center
09:50AM 34.8131 -116.4511 229° Southwest 511 588 24,100 -2,340 Descending Los Angeles Center
09:51AM 34.7825 -116.6086 257° West 487 560 22,700 -1,080 Descending Los Angeles Center
09:52AM 34.7675 -116.7681 264° West 475 547 22,000 -360 Descending Los Angeles Center
09:53AM 34.7514 -116.9228 263° West 463 533 22,000 -480 Level Los Angeles Center
09:54AM 34.7325 -117.1103 263° West 464 534 21,100 -1,320 Descending Los Angeles Center
09:55AM 34.7164 -117.2689 263° West 469 540 19,400 -1,920 Descending Los Angeles Center
09:56AM 34.6994 -117.4244 262° West 464 534 17,200 -2,160 Descending Los Angeles Center
09:57AM 34.6836 -117.5772 263° West 455 524 15,000 -2,160 Descending Los Angeles Center
09:58AM 34.6631 -117.7228 260° West 435 501 12,800 -1,140 Descending Los Angeles Center
10:00AM 34.6429 -117.9140 262° West  Level FlightAware Approximate
10:03AM 34.5667 -118.3500 90° East 284 327 8,100  Level Southern California TRACON
10:05AM 34.5240 -118.5205 253° West  Level FlightAware Approximate
10:05AM 34.5000 -118.5000 253° West 265 305 7,100  Level Southern California TRACON
10:06AM 34.4333 -118.5333 202° Southwest 274 315 6,600 -1,080 Descending Southern California TRACON
10:07AM 34.2007 -118.3587 165° South  Level Estimated
10:07AM 34.3500 -118.5500 189° South 271 312 5,100  Level Southern California TRACON
10:08AM 34.2007 -118.3587 158° South  Level Estimated
10:08AM 34.2833 -118.5500 180° South 234 269 4,800  Level Southern California TRACON
10:09AM 34.2007 -118.3587 90° East  Level Estimated
10:09AM 34.2333 -118.5333 165° South 219 252 3,600  Level Southern California TRACON
10:10AM 34.2000 -118.4833 129° Southeast 157 181 2,800 -840 Descending Southern California TRACON
10:11AM 34.2000 -118.4500 90° East 127 146 2,100 -720 Descending Southern California TRACON
10:12AM 34.2000 -118.4000 90° East 132 152 1,400 -660 Descending Southern California TRACON
10:14AM 34.2000 -118.3500 90° East  Level FlightAware Approximate
10:21AM 34.2007 -118.3587 90° East  Level Estimated